Flight Track Log - Related Links

Times and Time Zones

All times are in EDT time to prevent confusion due to time zone crossing. See the CCA4406 flight status page for this flight to view local times or setup timezone preferences in your user account.

Time Position Orientation Groundspeed Altitude Reporting Facility
EDT Latitude Longitude Course Direction KTS MPH feet Rate Location/Type
Thu 01:20:00 AM 29.7300 94.0738 80° East  Level Estimated
Thu 01:21:00 AM 29.7458 94.2008 82° East  Level Estimated
Thu 01:22:00 AM 29.7614 94.3279 82° East  Level Estimated
Thu 01:23:00 AM 29.7768 94.4550 82° East  Level Estimated
Thu 01:24:00 AM 29.7922 94.5821 82° East  Level Estimated
Thu 01:25:00 AM 29.8074 94.7093 82° East  Level Estimated
Thu 01:26:00 AM 29.8226 94.8365 82° East  Level Estimated
Thu 01:27:00 AM 29.8376 94.9638 82° East  Level Estimated
Thu 01:28:00 AM 29.8524 95.0911 82° East  Level Estimated
Thu 01:29:00 AM 29.8672 95.2184 82° East  Level Estimated
Thu 01:30:00 AM 29.8818 95.3458 82° East  Level Estimated
Thu 01:31:00 AM 29.8963 95.4732 82° East  Level Estimated
Thu 01:32:00 AM 29.9107 95.6006 83° East  Level Estimated
Thu 01:33:00 AM 29.9250 95.7281 83° East  Level Estimated
Thu 01:34:00 AM 29.9391 95.8556 83° East  Level Estimated
Thu 01:35:00 AM 29.9531 95.9832 83° East  Level Estimated
Thu 01:36:00 AM 29.9670 96.1108 83° East  Level Estimated
Thu 01:37:00 AM 29.9808 96.2384 83° East  Level Estimated
Thu 01:38:00 AM 29.9944 96.3661 83° East  Level Estimated
Thu 01:39:00 AM 30.0080 96.4938 83° East  Level Estimated
Thu 01:40:00 AM 30.0214 96.6215 83° East  Level Estimated
Thu 01:41:00 AM 30.0347 96.7492 83° East  Level Estimated
Thu 01:42:00 AM 30.0478 96.8770 83° East  Level Estimated
Thu 01:43:00 AM 30.0608 97.0049 83° East  Level Estimated
Thu 01:44:00 AM 30.0737 97.1327 83° East  Level Estimated
Thu 01:45:00 AM 30.0865 97.2606 83° East  Level Estimated
Thu 01:46:00 AM 30.0992 97.3886 83° East  Level Estimated
Thu 01:47:00 AM 30.1117 97.5165 84° East  Level Estimated
Thu 01:48:00 AM 30.1241 97.6445 84° East  Level Estimated
Thu 01:49:00 AM 30.1364 97.7726 84° East  Level Estimated
Thu 01:50:00 AM 30.1486 97.9006 84° East  Level Estimated
Thu 01:51:00 AM 30.1606 98.0287 84° East  Level Estimated
Thu 01:52:00 AM 30.1726 98.1568 84° East  Level Estimated
Thu 01:53:00 AM 30.1843 98.2850 84° East  Level Estimated
Thu 01:54:00 AM 30.1960 98.4131 84° East  Level Estimated
Thu 01:55:00 AM 30.2076 98.5414 84° East  Level Estimated
Thu 01:56:00 AM 30.2190 98.6696 84° East  Level Estimated
Thu 01:57:00 AM 30.2303 98.7979 84° East  Level Estimated
Thu 01:58:00 AM 30.2414 98.9262 84° East  Level Estimated
Thu 01:59:00 AM 30.2525 99.0545 84° East  Level Estimated
Thu 02:00:00 AM 30.2634 99.1829 84° East  Level Estimated
Thu 02:01:00 AM 30.2742 99.3112 84° East  Level Estimated
Thu 02:02:00 AM 30.2848 99.4397 84° East  Level Estimated
Thu 02:03:00 AM 30.2954 99.5681 85° East  Level Estimated
Thu 02:04:00 AM 30.3058 99.6966 85° East  Level Estimated
Thu 02:05:00 AM 30.3161 99.8251 85° East  Level Estimated
Thu 02:06:00 AM 30.3263 99.9536 85° East  Level Estimated
Thu 02:07:00 AM 30.3363 100.0822 85° East  Level Estimated
Thu 02:08:00 AM 30.3462 100.2107 85° East  Level Estimated
Thu 02:09:00 AM 30.3560 100.3393 85° East  Level Estimated
Thu 02:10:00 AM 30.3657 100.4680 85° East  Level Estimated
Thu 02:11:00 AM 30.3752 100.5966 85° East  Level Estimated
Thu 02:12:00 AM 30.3846 100.7253 85° East  Level Estimated
Thu 02:13:00 AM 30.3939 100.8540 85° East  Level Estimated
Thu 02:14:00 AM 30.4030 100.9827 85° East  Level Estimated
Thu 02:15:00 AM 30.4121 101.1115 85° East  Level Estimated
Thu 02:16:00 AM 30.4210 101.2403 85° East  Level Estimated
Thu 02:17:00 AM 30.4297 101.3691 85° East  Level Estimated
Thu 02:18:00 AM 30.4384 101.4979 86° East  Level Estimated
Thu 02:19:00 AM 30.4469 101.6267 86° East  Level Estimated
Thu 02:20:00 AM 30.4553 101.7556 86° East  Level Estimated
Thu 02:21:00 AM 30.4636 101.8845 86° East  Level Estimated
Thu 02:22:00 AM 30.4717 102.0134 86° East  Level Estimated
Thu 02:23:00 AM 30.4797 102.1423 86° East  Level Estimated
Thu 02:24:00 AM 30.4876 102.2713 86° East  Level Estimated
Thu 02:25:00 AM 30.4954 102.4003 86° East  Level Estimated
Thu 02:26:00 AM 30.5030 102.5293 86° East  Level Estimated
Thu 02:27:00 AM 30.5105 102.6583 86° East  Level Estimated
Thu 02:28:00 AM 30.5179 102.7873 86° East  Level Estimated
Thu 02:29:00 AM 30.5252 102.9164 86° East  Level Estimated
Thu 02:30:00 AM 30.5323 103.0454 86° East  Level Estimated
Thu 02:31:00 AM 30.5393 103.1745 86° East  Level Estimated
Thu 02:32:00 AM 30.5462 103.3036 86° East  Level Estimated
Thu 02:33:00 AM 30.5529 103.4328 86° East  Level Estimated
Thu 02:34:00 AM 30.5595 103.5619 87° East  Level Estimated
Thu 02:35:00 AM 30.5660 103.6911 87° East  Level Estimated
Thu 02:36:00 AM 30.5724 103.8203 87° East  Level Estimated
Thu 02:37:00 AM 30.5785 103.9471 87° East  Level Estimated
Thu 02:38:00 AM 30.5785 103.9471 240° Southwest  Level Estimated
Thu 02:39:00 AM 30.5785 103.9471 240° Southwest  Level Estimated
Thu 02:40:00 AM 30.5785 103.9471 240° Southwest  Level Estimated
Thu 02:41:00 AM 30.5785 103.9471 240° Southwest  Level Estimated
Thu 02:42:00 AM 30.5785 103.9471 240° Southwest  Level Estimated
Thu 02:43:00 AM 30.5785 103.9471 240° Southwest  Level Estimated
Thu 02:44:00 AM 30.5785 103.9471 240° Southwest  Level Estimated
Thu 02:45:00 AM 30.5785 103.9471 240° Southwest  Level Estimated
Thu 02:46:00 AM 30.5785 103.9471 240° Southwest  Level Estimated
Thu 02:47:00 AM 30.5785 103.9471 240° Southwest  Level Estimated
Thu 02:48:00 AM 30.5785 103.9471 240° Southwest  Level Estimated
Thu 02:49:00 AM 30.5785 103.9471 240° Southwest  Level Estimated
Thu 02:50:00 AM 30.5785 103.9471 240° Southwest  Level Estimated
Thu 02:51:00 AM 30.5785 103.9471 240° Southwest  Level Estimated
Thu 02:52:00 AM 30.5785 103.9471 240° Southwest  Level Estimated
Thu 02:53:00 AM 30.5785 103.9471 240° Southwest  Level Estimated

Login

Don't have an account? Register now (free) for customized features, flight alerts, and more!